Time;durP1;ratioP1;P1;durP2;ratioP2;P2;SDS_P1;SDS_P2;PMS_P1;PMS_P2;Temp;Humidity;BMP_temperature;BMP_pressure;BME280_temperature;BME280_humidity;BME280_pressure;Samples;Min_cycle;Max_cycle;Signal;HPM_P1;HPM_P2
2022/06/03 00:01:03;;;;;;;4.33;3.30;;;17.70;66.40;;;;;;6129794;23;20897;-83
2022/06/03 00:03:41;;;;;;;4.07;3.23;;;17.60;66.40;;;;;;6131078;23;20396;-84
2022/06/03 00:06:16;;;;;;;3.20;2.90;;;17.60;67.20;;;;;;6104829;23;20392;-83
2022/06/03 00:08:48;;;;;;;3.33;3.13;;;17.60;67.60;;;;;;6130640;23;20490;-84
2022/06/03 00:11:30;;;;;;;3.20;3.00;;;17.70;68.00;;;;;;6128443;23;20400;-84
2022/06/03 00:14:18;;;;;;;3.33;3.10;;;17.70;68.30;;;;;;6131101;23;20434;-83
2022/06/03 00:17:26;;;;;;;3.33;3.13;;;17.70;68.50;;;;;;6131491;23;20411;-83
2022/06/03 00:20:02;;;;;;;3.40;3.10;;;17.80;68.70;;;;;;5990178;24;20443;-84
2022/06/03 00:22:39;;;;;;;2.90;2.70;;;17.80;68.90;;;;;;5987902;24;20407;-84
2022/06/03 00:25:26;;;;;;;3.83;3.60;;;17.70;68.70;;;;;;6075414;23;20412;-83
2022/06/03 00:28:13;;;;;;;3.53;3.03;;;17.70;69.00;;;;;;6129779;23;20428;-84
2022/06/03 00:31:10;;;;;;;3.30;3.10;;;17.70;69.30;;;;;;6130049;23;20495;-82
2022/06/03 00:33:55;;;;;;;2.77;2.57;;;17.70;69.80;;;;;;6131244;23;20994;-83
2022/06/03 00:36:24;;;;;;;2.53;2.33;;;17.70;70.10;;;;;;6104405;23;20406;-83
2022/06/03 00:39:10;;;;;;;3.50;2.70;;;17.70;70.40;;;;;;6140611;23;20503;-82
2022/06/03 00:41:37;;;;;;;2.60;2.40;;;17.70;69.20;;;;;;6131375;23;20402;-84
2022/06/03 00:44:29;;;;;;;2.70;2.50;;;17.60;69.30;;;;;;6129291;23;20767;-84
2022/06/03 00:47:16;;;;;;;2.53;2.33;;;17.60;69.50;;;;;;6129291;23;20418;-83
2022/06/03 00:50:19;;;;;;;2.50;2.30;;;17.40;69.60;;;;;;6129037;23;20431;-83
2022/06/03 00:52:49;;;;;;;2.70;2.50;;;17.40;70.10;;;;;;6129092;23;20403;-83
2022/06/03 00:55:37;;;;;;;2.93;2.80;;;17.50;70.50;;;;;;6127955;23;20829;-84
2022/06/03 00:58:28;;;;;;;2.47;2.33;;;17.50;71.60;;;;;;6103762;23;20408;-83
2022/06/03 01:00:54;;;;;;;2.93;2.73;;;17.50;71.30;;;;;;6127987;23;20404;-84
2022/06/03 01:04:09;;;;;;;3.07;2.87;;;17.50;71.50;;;;;;6127379;23;20470;-83
2022/06/03 01:07:02;;;;;;;4.47;2.70;;;17.50;71.60;;;;;;6128580;23;20402;-84
2022/06/03 01:09:53;;;;;;;3.20;3.00;;;17.40;71.70;;;;;;6129472;23;20427;-84
2022/06/03 01:12:38;;;;;;;3.33;2.83;;;17.60;71.70;;;;;;6105452;23;20415;-83
2022/06/03 01:15:41;;;;;;;5.90;2.90;;;17.60;71.40;;;;;;6131971;23;20542;-83
2022/06/03 01:18:28;;;;;;;3.20;3.00;;;17.50;71.80;;;;;;6131826;23;20425;-84
2022/06/03 01:21:12;;;;;;;3.60;3.40;;;17.30;72.50;;;;;;6132508;23;20605;-83
2022/06/03 01:24:14;;;;;;;3.60;3.30;;;17.30;73.30;;;;;;6130350;23;20728;-83
2022/06/03 01:26:53;;;;;;;3.63;3.20;;;17.20;73.80;;;;;;6133213;23;20395;-82
2022/06/03 01:29:41;;;;;;;5.60;3.70;;;17.10;74.00;;;;;;6132042;23;20970;-83
2022/06/03 01:32:56;;;;;;;3.40;3.10;;;17.10;74.20;;;;;;6109888;23;20420;-84
2022/06/03 01:35:37;;;;;;;3.47;3.20;;;17.10;74.60;;;;;;5988599;24;20459;-82
2022/06/03 01:38:36;;;;;;;3.63;3.43;;;17.10;74.80;;;;;;5964586;24;20397;-83
2022/06/03 01:41:08;;;;;;;4.03;3.53;;;17.00;74.90;;;;;;6103584;23;20404;-82
2022/06/03 01:43:57;;;;;;;3.50;3.23;;;17.00;75.70;;;;;;6133015;23;20739;-84
2022/06/03 01:46:26;;;;;;;3.37;3.07;;;17.00;76.30;;;;;;6126735;23;20436;-84
2022/06/03 01:48:56;;;;;;;5.50;3.47;;;16.90;76.60;;;;;;6126650;23;20427;-84
2022/06/03 01:51:51;;;;;;;3.77;3.40;;;16.90;76.70;;;;;;6128287;23;20412;-83
2022/06/03 01:54:56;;;;;;;3.30;3.10;;;16.90;76.90;;;;;;6103493;23;20396;-84
2022/06/03 01:57:54;;;;;;;4.20;3.90;;;17.00;77.10;;;;;;6145374;23;20415;-80
2022/06/03 02:00:27;;;;;;;3.23;3.03;;;16.90;77.20;;;;;;6116093;23;20423;-83
2022/06/03 02:03:13;;;;;;;3.60;3.30;;;16.90;77.60;;;;;;6135553;23;20435;-84
2022/06/03 02:06:17;;;;;;;3.10;2.90;;;16.90;77.00;;;;;;6135303;23;20411;-83
2022/06/03 02:09:29;;;;;;;3.80;3.50;;;16.90;76.90;;;;;;6133673;23;21333;-80
2022/06/03 02:11:59;;;;;;;3.53;3.30;;;16.90;77.00;;;;;;6008045;23;20419;-82
2022/06/03 02:14:59;;;;;;;3.07;2.87;;;16.90;77.00;;;;;;6130826;23;20431;-83
2022/06/03 02:17:47;;;;;;;3.60;3.27;;;16.90;77.10;;;;;;6131665;23;20411;-83
2022/06/03 02:21:02;;;;;;;3.10;2.90;;;17.10;77.40;;;;;;6130732;23;20435;-83
2022/06/03 02:23:39;;;;;;;4.77;3.90;;;17.00;77.30;;;;;;6010002;23;20408;-84
2022/06/03 02:26:06;;;;;;;2.90;2.67;;;16.90;77.90;;;;;;6135469;23;20410;-83
2022/06/03 02:31:46;;;;;;;3.30;3.00;;;16.70;79.20;;;;;;6129743;23;20423;-83
2022/06/03 02:34:31;;;;;;;2.47;2.37;;;16.70;79.90;;;;;;6128229;23;20412;-83
2022/06/03 02:37:10;;;;;;;2.80;2.60;;;16.80;80.50;;;;;;6130263;23;20430;-81
2022/06/03 02:40:07;;;;;;;2.93;2.67;;;16.90;79.50;;;;;;6134683;23;20475;-82
2022/06/03 02:42:45;;;;;;;2.50;2.40;;;17.00;77.60;;;;;;6129662;23;20400;-84
2022/06/03 02:45:41;;;;;;;2.67;2.47;;;16.80;77.60;;;;;;6130226;23;20400;-83
2022/06/03 02:48:22;;;;;;;2.80;2.60;;;16.70;79.10;;;;;;6103271;23;20423;-83
2022/06/03 02:51:09;;;;;;;2.97;2.77;;;16.70;80.20;;;;;;6130221;23;20503;-84
2022/06/03 02:53:56;;;;;;;3.57;3.03;;;16.70;80.40;;;;;;6127584;23;20404;-83
2022/06/03 02:57:01;;;;;;;2.97;2.77;;;16.60;80.90;;;;;;6127393;23;20434;-81
2022/06/03 03:00:08;;;;;;;3.20;3.00;;;16.60;81.40;;;;;;6127394;23;20752;-82
2022/06/03 03:03:17;;;;;;;3.10;2.87;;;16.50;81.90;;;;;;6129991;23;20400;-83
2022/06/03 03:06:19;;;;;;;3.40;3.10;;;16.50;82.50;;;;;;6125971;23;20419;-82
2022/06/03 03:09:08;;;;;;;3.57;2.90;;;16.30;83.10;;;;;;6127319;23;20439;-83
2022/06/03 03:12:02;;;;;;;3.13;2.83;;;16.30;84.00;;;;;;6129033;23;20485;-84
2022/06/03 03:14:43;;;;;;;3.10;2.80;;;16.30;84.40;;;;;;6128316;23;20420;-82
2022/06/03 03:17:38;;;;;;;8.93;3.50;;;16.30;84.90;;;;;;6102504;23;20395;-81
2022/06/03 03:20:08;;;;;;;3.13;2.90;;;16.20;85.20;;;;;;6137893;23;20428;-82
2022/06/03 03:22:58;;;;;;;2.70;2.50;;;16.20;85.30;;;;;;6134131;23;20475;-83
2022/06/03 03:25:52;;;;;;;2.90;2.70;;;16.30;85.80;;;;;;6141214;23;20398;-83
2022/06/03 03:28:37;;;;;;;3.13;2.93;;;16.20;86.20;;;;;;6143623;23;20442;-84
2022/06/03 03:31:25;;;;;;;2.80;2.60;;;16.20;86.50;;;;;;6146032;23;20475;-84
2022/06/03 03:34:18;;;;;;;3.00;2.80;;;16.20;87.10;;;;;;6146270;23;20399;-81
2022/06/03 03:37:17;;;;;;;3.73;3.43;;;16.20;87.20;;;;;;6148039;23;20436;-84
2022/06/03 03:40:09;;;;;;;2.80;2.60;;;16.20;87.40;;;;;;6147820;23;20434;-81
2022/06/03 03:42:35;;;;;;;3.90;2.90;;;16.20;87.40;;;;;;6133535;23;20781;-81
2022/06/03 03:45:49;;;;;;;4.27;3.40;;;16.30;87.30;;;;;;6127759;23;20411;-82
2022/06/03 03:48:31;;;;;;;3.50;3.20;;;16.30;87.30;;;;;;6126417;23;20475;-83
2022/06/03 03:51:23;;;;;;;3.63;3.40;;;16.40;86.20;;;;;;6126637;23;20428;-83
2022/06/03 03:53:53;;;;;;;2.97;2.77;;;16.30;85.70;;;;;;6127147;23;20498;-84
2022/06/03 03:56:37;;;;;;;3.50;3.30;;;16.30;85.20;;;;;;6128533;23;20432;-83
2022/06/03 03:59:13;;;;;;;2.97;2.77;;;16.30;84.80;;;;;;6130173;23;20436;-83
2022/06/03 04:02:05;;;;;;;4.50;2.90;;;16.20;85.10;;;;;;6132561;23;20418;-83
2022/06/03 04:05:01;;;;;;;4.63;4.27;;;16.30;84.90;;;;;;6134908;23;20467;-82
2022/06/03 04:07:47;;;;;;;3.37;3.10;;;16.20;84.40;;;;;;6109327;23;20395;-83
2022/06/03 04:10:47;;;;;;;4.23;2.80;;;16.20;84.50;;;;;;6111177;23;20462;-84
2022/06/03 04:13:33;;;;;;;3.37;3.10;;;16.20;84.50;;;;;;6127083;23;20494;-83
2022/06/03 04:16:23;;;;;;;3.93;3.60;;;16.30;85.30;;;;;;6126960;23;20440;-85
2022/06/03 04:19:07;;;;;;;4.33;3.20;;;16.30;85.40;;;;;;6105126;23;20951;-81
2022/06/03 04:22:00;;;;;;;4.07;2.53;;;16.40;84.70;;;;;;6126158;23;20396;-83
2022/06/03 04:25:07;;;;;;;3.90;3.07;;;16.60;84.00;;;;;;6117109;23;20415;-81
2022/06/03 04:28:03;;;;;;;2.73;2.53;;;16.80;82.20;;;;;;6098693;23;20412;-82
2022/06/03 04:30:38;;;;;;;3.17;2.97;;;16.60;81.40;;;;;;6070634;23;20418;-82
2022/06/03 04:33:26;;;;;;;3.47;3.27;;;16.50;82.00;;;;;;6123411;23;20442;-82
2022/06/03 04:36:14;;;;;;;3.90;2.97;;;16.30;82.40;;;;;;6125551;23;20770;-83
2022/06/03 04:38:49;;;;;;;3.03;2.80;;;16.40;82.60;;;;;;6123837;23;20428;-82
2022/06/03 04:42:00;;;;;;;2.90;2.70;;;16.30;83.10;;;;;;6125456;23;20392;-82
2022/06/03 04:45:02;;;;;;;4.37;3.30;;;16.30;83.80;;;;;;6125490;23;20408;-83
2022/06/03 04:47:32;;;;;;;3.60;3.30;;;16.20;83.50;;;;;;6098765;23;20399;-82
2022/06/03 04:50:30;;;;;;;3.37;3.10;;;16.30;82.60;;;;;;6125451;23;20511;-83
2022/06/03 04:53:07;;;;;;;3.87;3.47;;;16.30;83.50;;;;;;6125366;23;20407;-82
2022/06/03 04:55:58;;;;;;;2.90;2.50;;;16.30;83.10;;;;;;6124241;23;20447;-83
2022/06/03 04:58:37;;;;;;;4.23;3.17;;;16.30;83.50;;;;;;6140754;23;20432;-82
2022/06/03 05:01:25;;;;;;;3.20;2.90;;;16.40;84.30;;;;;;6144642;23;20395;-81
2022/06/03 05:04:25;;;;;;;3.60;3.17;;;16.40;84.80;;;;;;6130474;23;20403;-84
2022/06/03 05:07:31;;;;;;;7.47;3.03;;;16.60;83.90;;;;;;6127416;23;20404;-83
2022/06/03 05:10:33;;;;;;;3.90;3.50;;;16.50;83.90;;;;;;6126256;23;20467;-83
2022/06/03 05:13:20;;;;;;;3.67;3.10;;;16.60;84.00;;;;;;6126635;23;21066;-83
2022/06/03 05:16:29;;;;;;;3.53;2.80;;;16.80;82.70;;;;;;6125291;23;20428;-83
2022/06/03 05:18:56;;;;;;;3.90;3.50;;;16.70;81.40;;;;;;6102350;23;20415;-83
2022/06/03 05:21:43;;;;;;;3.47;3.13;;;16.80;81.70;;;;;;6128605;23;20435;-84
2022/06/03 05:24:45;;;;;;;5.57;4.10;;;16.90;80.70;;;;;;6107196;23;20410;-81
2022/06/03 05:27:42;;;;;;;4.73;3.00;;;16.90;79.30;;;;;;6135400;23;20439;-84
2022/06/03 05:30:27;;;;;;;3.30;2.73;;;16.90;79.30;;;;;;6134000;23;20424;-84
2022/06/03 05:33:12;;;;;;;4.60;2.93;;;16.90;79.80;;;;;;6128350;23;20443;-83
2022/06/03 05:36:16;;;;;;;2.77;2.53;;;16.80;79.10;;;;;;6128966;23;20435;-83
2022/06/03 05:39:04;;;;;;;3.53;3.23;;;16.90;79.50;;;;;;6130097;23;20449;-84
2022/06/03 05:45:09;;;;;;;3.40;3.10;;;16.90;80.00;;;;;;6131186;23;20408;-84
2022/06/03 05:47:49;;;;;;;5.40;3.10;;;17.00;79.90;;;;;;6130728;23;20396;-84
2022/06/03 05:50:24;;;;;;;4.13;3.43;;;17.00;80.10;;;;;;6104424;23;20431;-84
2022/06/03 05:53:21;;;;;;;4.40;3.87;;;17.20;79.60;;;;;;6129089;23;20402;-84
2022/06/03 05:56:25;;;;;;;4.27;3.87;;;17.20;79.30;;;;;;6105452;23;20432;-84
2022/06/03 05:59:36;;;;;;;3.47;3.17;;;17.40;79.20;;;;;;6136565;23;20506;-83
2022/06/03 06:02:33;;;;;;;2.83;2.50;;;17.40;78.50;;;;;;6105206;23;20430;-84
2022/06/03 06:05:25;;;;;;;3.30;3.00;;;17.50;77.80;;;;;;6106126;23;20396;-83
2022/06/03 06:08:13;;;;;;;2.97;2.37;;;17.50;78.00;;;;;;6130920;23;20407;-83
2022/06/03 06:10:57;;;;;;;2.93;2.73;;;17.50;77.90;;;;;;6138466;23;20396;-84
2022/06/03 06:13:37;;;;;;;4.60;2.50;;;17.40;78.70;;;;;;6132924;23;20666;-81
2022/06/03 06:16:28;;;;;;;2.53;2.33;;;17.50;78.70;;;;;;6132162;23;20966;-84
2022/06/03 06:19:18;;;;;;;2.90;2.60;;;17.70;78.20;;;;;;6132386;23;20432;-84
2022/06/03 06:22:07;;;;;;;4.50;2.53;;;17.80;77.80;;;;;;6106108;23;20989;-84
2022/06/03 06:24:55;;;;;;;2.43;2.33;;;17.50;78.00;;;;;;6134419;23;20392;-84
2022/06/03 06:28:17;;;;;;;2.60;2.00;;;18.00;78.10;;;;;;6133764;23;20396;-84
2022/06/03 06:30:55;;;;;;;4.77;2.00;;;18.20;76.40;;;;;;6098894;23;20403;-82
2022/06/03 06:34:19;;;;;;;3.00;2.20;;;18.20;75.60;;;;;;6153254;23;20415;-84
2022/06/03 06:37:03;;;;;;;2.43;2.20;;;18.30;75.70;;;;;;6007123;24;20524;-83
2022/06/03 06:39:51;;;;;;;5.17;2.30;;;18.50;74.60;;;;;;5984676;23;20507;-84
2022/06/03 06:42:44;;;;;;;2.50;2.30;;;18.50;73.70;;;;;;6133688;23;20479;-83
2022/06/03 06:45:32;;;;;;;2.23;2.03;;;18.70;73.10;;;;;;6137083;23;20418;-82
2022/06/03 06:48:07;;;;;;;3.20;2.30;;;18.80;72.50;;;;;;6128328;23;20412;-81
2022/06/03 06:50:51;;;;;;;2.67;2.10;;;19.00;71.80;;;;;;6128231;23;20395;-83
2022/06/03 06:53:40;;;;;;;2.00;1.90;;;19.00;71.20;;;;;;6135163;23;20392;-82
2022/06/03 06:56:16;;;;;;;2.50;2.23;;;18.90;70.80;;;;;;6133256;23;20423;-83
2022/06/03 06:58:51;;;;;;;2.20;2.00;;;18.50;71.60;;;;;;6104761;23;20442;-83
2022/06/03 07:01:29;;;;;;;1.90;1.80;;;18.70;72.70;;;;;;6114166;23;20479;-82
2022/06/03 07:04:13;;;;;;;2.40;2.20;;;19.00;72.00;;;;;;6123906;23;20376;-82
2022/06/03 07:06:50;;;;;;;1.90;1.80;;;19.10;72.00;;;;;;6123421;23;20388;-83
2022/06/03 07:09:48;;;;;;;2.93;2.40;;;19.30;69.70;;;;;;6148183;23;20443;-81
2022/06/03 07:12:19;;;;;;;2.47;2.23;;;19.10;69.90;;;;;;6148646;23;20468;-81
2022/06/03 07:15:11;;;;;;;6.37;2.37;;;19.30;70.90;;;;;;6148962;23;20405;-84
2022/06/03 07:21:14;;;;;;;1.87;1.77;;;19.70;69.30;;;;;;6150049;23;20438;-83
2022/06/03 07:23:56;;;;;;;4.63;2.30;;;19.70;68.60;;;;;;6150381;23;20419;-83
2022/06/03 07:26:47;;;;;;;3.27;1.90;;;19.60;68.70;;;;;;6150987;23;20419;-84
2022/06/03 07:29:25;;;;;;;1.90;1.73;;;19.60;68.60;;;;;;6151039;23;20428;-83
2022/06/03 07:32:05;;;;;;;3.60;2.17;;;19.70;69.10;;;;;;6147969;23;20423;-82
2022/06/03 07:34:43;;;;;;;2.37;2.00;;;19.30;68.20;;;;;;6118193;23;20400;-83
2022/06/03 07:37:19;;;;;;;3.53;1.70;;;19.10;69.60;;;;;;6143738;23;20459;-82
2022/06/03 07:40:07;;;;;;;2.10;2.00;;;19.40;70.10;;;;;;6119309;23;20450;-83
2022/06/03 07:42:38;;;;;;;1.70;1.60;;;19.90;68.90;;;;;;6141176;23;20407;-83
2022/06/03 07:45:14;;;;;;;2.83;2.17;;;20.30;66.90;;;;;;6136873;23;20853;-84
2022/06/03 07:47:41;;;;;;;4.20;1.93;;;20.30;66.60;;;;;;6135736;23;20407;-83
2022/06/03 07:50:15;;;;;;;1.93;1.70;;;20.30;66.50;;;;;;6137395;23;20439;-83
2022/06/03 07:52:50;;;;;;;2.17;1.97;;;20.60;66.00;;;;;;6143901;23;20412;-83
2022/06/03 07:55:24;;;;;;;1.73;1.63;;;20.80;65.30;;;;;;6112911;23;20395;-83
2022/06/03 07:58:01;;;;;;;1.87;1.60;;;20.50;65.00;;;;;;6133694;23;20453;-84
2022/06/03 08:00:28;;;;;;;1.90;1.80;;;20.30;66.00;;;;;;6109276;23;20391;-84
2022/06/03 08:03:12;;;;;;;2.07;1.97;;;20.30;67.40;;;;;;6126054;23;20404;-83
2022/06/03 08:05:39;;;;;;;1.70;1.60;;;20.30;67.10;;;;;;6148223;23;20416;-84
2022/06/03 08:11:27;;;;;;;2.43;1.60;;;21.20;66.10;;;;;;6134093;23;20514;-82
2022/06/03 08:13:56;;;;;;;1.43;1.33;;;21.10;64.40;;;;;;6114260;23;20435;-83
2022/06/03 08:16:29;;;;;;;1.83;1.73;;;21.50;63.60;;;;;;6135142;23;20424;-84
2022/06/03 08:19:04;;;;;;;2.40;1.97;;;21.70;61.90;;;;;;6132284;23;20502;-83
2022/06/03 08:21:41;;;;;;;1.90;1.70;;;21.40;63.00;;;;;;6105717;23;20443;-84
2022/06/03 08:24:14;;;;;;;1.70;1.60;;;22.00;62.50;;;;;;6111580;23;20398;-83
2022/06/03 08:26:44;;;;;;;2.03;1.53;;;22.00;61.10;;;;;;6107571;23;20404;-83
2022/06/03 08:29:25;;;;;;;1.77;1.67;;;22.30;60.90;;;;;;6108802;23;21075;-83
2022/06/03 08:31:55;;;;;;;1.93;1.50;;;22.20;60.00;;;;;;6134965;23;20430;-84
2022/06/03 08:34:26;;;;;;;3.80;1.70;;;22.20;60.60;;;;;;6133906;23;20415;-84
2022/06/03 08:36:54;;;;;;;3.60;1.70;;;22.90;60.10;;;;;;6134234;23;21009;-84
2022/06/03 08:39:25;;;;;;;1.80;1.40;;;23.20;59.50;;;;;;6133959;23;20432;-82
2022/06/03 08:42:10;;;;;;;1.70;1.60;;;23.70;58.80;;;;;;6134452;23;20408;-82
2022/06/03 08:44:58;;;;;;;2.80;1.60;;;23.40;57.40;;;;;;6134508;23;20392;-83
2022/06/03 08:47:42;;;;;;;1.60;1.50;;;24.00;56.80;;;;;;6131333;23;20412;-82
2022/06/03 08:50:46;;;;;;;1.90;1.40;;;24.60;55.20;;;;;;6106196;23;20515;-83
2022/06/03 08:53:47;;;;;;;1.90;1.80;;;25.20;53.60;;;;;;6133573;23;20408;-84
2022/06/03 08:56:18;;;;;;;1.70;1.60;;;26.10;51.00;;;;;;6132267;23;20443;-82
2022/06/03 08:58:59;;;;;;;1.97;1.77;;;25.50;51.60;;;;;;6133057;23;21045;-82
2022/06/03 09:01:32;;;;;;;1.70;1.60;;;26.00;51.70;;;;;;6131539;23;20400;-83
2022/06/03 09:04:23;;;;;;;1.60;1.50;;;26.40;50.00;;;;;;6112725;23;20395;-85
2022/06/03 09:07:10;;;;;;;1.80;1.60;;;26.00;50.10;;;;;;6132791;23;20419;-82
2022/06/03 09:10:02;;;;;;;1.97;1.77;;;25.40;50.80;;;;;;6133372;23;20829;-83
2022/06/03 09:12:28;;;;;;;4.03;1.50;;;24.90;51.50;;;;;;6132572;23;20410;-85
2022/06/03 09:15:01;;;;;;;1.63;1.53;;;24.80;52.00;;;;;;6132462;23;20412;-83
2022/06/03 09:17:48;;;;;;;2.03;1.83;;;25.30;52.00;;;;;;6131327;23;20424;-83
2022/06/03 09:20:30;;;;;;;1.70;1.37;;;26.90;50.20;;;;;;6130610;23;20507;-83
2022/06/03 09:23:05;;;;;;;2.60;1.50;;;27.50;48.90;;;;;;6130226;23;20451;-82
2022/06/03 09:25:34;;;;;;;1.73;1.63;;;28.10;48.10;;;;;;6129967;23;20399;-83
2022/06/03 09:28:05;;;;;;;3.83;1.50;;;28.00;46.30;;;;;;6131585;23;20422;-82
2022/06/03 09:30:37;;;;;;;1.43;1.33;;;28.00;46.20;;;;;;6114210;23;20903;-84
2022/06/03 09:33:11;;;;;;;1.60;1.50;;;28.00;45.70;;;;;;6140301;23;20423;-83
2022/06/03 09:35:42;;;;;;;4.43;1.53;;;28.10;46.40;;;;;;6111874;23;20392;-84
2022/06/03 09:38:10;;;;;;;1.97;1.50;;;29.30;44.90;;;;;;6143968;23;20475;-83
2022/06/03 09:40:41;;;;;;;1.50;1.40;;;30.10;43.00;;;;;;6146875;23;20471;-82
2022/06/03 09:43:20;;;;;;;3.20;1.30;;;29.50;42.10;;;;;;6147588;23;20399;-81
2022/06/03 09:45:51;;;;;;;1.93;1.60;;;29.80;42.30;;;;;;6150811;23;20471;-81
2022/06/03 09:48:21;;;;;;;2.00;1.70;;;30.70;41.20;;;;;;6119444;23;20407;-82
2022/06/03 09:50:50;;;;;;;1.60;1.37;;;31.40;40.10;;;;;;6131527;23;20403;-83
2022/06/03 09:53:25;;;;;;;2.20;1.63;;;30.20;40.50;;;;;;6131836;23;20498;-84
2022/06/03 09:55:55;;;;;;;1.53;1.43;;;29.20;41.90;;;;;;6133413;23;20407;-84
2022/06/03 09:58:31;;;;;;;5.50;1.87;;;28.20;43.10;;;;;;6133445;23;20510;-84
2022/06/03 10:01:00;;;;;;;1.40;1.30;;;28.30;43.60;;;;;;6133393;23;20435;-84
2022/06/03 10:03:27;;;;;;;4.23;1.90;;;28.60;43.00;;;;;;6133310;23;21219;-85
2022/06/03 10:05:57;;;;;;;2.17;1.50;;;29.10;42.80;;;;;;6133032;23;20484;-85
2022/06/03 10:08:28;;;;;;;1.93;1.50;;;29.50;42.40;;;;;;6106347;23;20431;-84
2022/06/03 10:13:42;;;;;;;1.97;1.87;;;29.80;40.70;;;;;;6144015;23;20388;-84
2022/06/03 10:16:12;;;;;;;1.93;1.53;;;30.30;40.80;;;;;;6145300;23;20443;-83
2022/06/03 10:18:49;;;;;;;2.37;2.10;;;29.90;40.00;;;;;;6147222;23;20442;-84
2022/06/03 10:21:15;;;;;;;1.93;1.83;;;28.80;41.30;;;;;;6117952;23;20466;-84
2022/06/03 10:24:02;;;;;;;2.33;1.80;;;29.00;41.20;;;;;;6135244;23;20415;-82
2022/06/03 10:26:51;;;;;;;1.80;1.70;;;29.40;41.10;;;;;;6141047;23;20629;-86
2022/06/03 10:29:21;;;;;;;1.53;1.40;;;29.30;40.90;;;;;;6141036;23;20430;-84
2022/06/03 10:31:58;;;;;;;2.07;1.87;;;28.40;41.40;;;;;;6140241;23;20430;-84
2022/06/03 10:34:36;;;;;;;2.10;1.90;;;28.50;41.70;;;;;;6140071;23;20399;-83
2022/06/03 10:37:11;;;;;;;1.70;1.60;;;28.60;41.70;;;;;;6114559;23;20397;-83
2022/06/03 10:39:42;;;;;;;1.80;1.70;;;29.40;40.90;;;;;;6134209;23;20442;-82
2022/06/03 10:42:14;;;;;;;3.30;1.97;;;29.50;41.60;;;;;;6111813;23;20411;-83
2022/06/03 10:44:48;;;;;;;1.93;1.83;;;29.30;41.80;;;;;;6114738;23;21136;-83
2022/06/03 10:47:23;;;;;;;1.80;1.53;;;29.00;40.90;;;;;;6139564;23;20430;-83
2022/06/03 10:49:56;;;;;;;2.90;1.60;;;28.80;40.70;;;;;;6138532;23;20484;-83
2022/06/03 11:01:28;;;;;;;2.27;1.77;;;29.00;41.00;;;;;;6137588;23;20399;-83
2022/06/03 11:03:56;;;;;;;2.63;1.83;;;29.20;41.30;;;;;;6136281;23;20408;-83
2022/06/03 11:06:26;;;;;;;1.87;1.50;;;30.30;38.60;;;;;;6143717;23;20470;-83
2022/06/03 11:09:02;;;;;;;2.50;2.10;;;30.40;38.40;;;;;;6113226;23;20428;-82
2022/06/03 11:11:34;;;;;;;2.37;1.90;;;30.60;38.20;;;;;;6139204;23;20392;-83
2022/06/03 11:14:22;;;;;;;2.00;1.80;;;30.30;39.00;;;;;;6138331;23;20414;-84
2022/06/03 11:17:10;;;;;;;1.77;1.67;;;30.00;39.40;;;;;;6139882;23;20434;-83
2022/06/03 11:19:43;;;;;;;2.57;1.50;;;30.00;39.20;;;;;;6112816;23;20453;-81
2022/06/03 11:22:16;;;;;;;3.17;1.83;;;29.40;40.20;;;;;;6123756;23;20403;-82
2022/06/03 11:24:55;;;;;;;1.60;1.50;;;29.20;40.70;;;;;;6140133;23;20400;-83
2022/06/03 11:27:34;;;;;;;2.07;1.87;;;29.60;40.50;;;;;;6140027;23;20428;-84
2022/06/03 11:30:05;;;;;;;1.60;1.50;;;29.60;40.10;;;;;;6143543;23;20495;-82
2022/06/03 11:32:33;;;;;;;3.33;2.10;;;29.50;40.30;;;;;;6151457;23;20478;-82
2022/06/03 11:35:14;;;;;;;1.80;1.70;;;29.60;39.40;;;;;;6151332;23;20468;-83
2022/06/03 11:37:47;;;;;;;3.43;1.77;;;29.00;40.30;;;;;;6147176;23;20408;-84
2022/06/03 11:40:33;;;;;;;3.30;1.90;;;28.80;40.70;;;;;;6105966;23;20805;-83
2022/06/03 11:43:41;;;;;;;2.00;1.87;;;28.60;41.30;;;;;;6131372;23;20407;-82
2022/06/03 11:46:31;;;;;;;1.60;1.50;;;28.50;41.80;;;;;;6131722;23;20406;-81
2022/06/03 11:48:58;;;;;;;1.87;1.77;;;29.50;41.00;;;;;;6105745;23;20428;-82
2022/06/03 11:51:25;;;;;;;1.93;1.27;;;29.20;40.60;;;;;;6131881;23;20418;-82
2022/06/03 11:53:53;;;;;;;2.03;1.57;;;29.70;40.70;;;;;;6133638;23;20403;-81
2022/06/03 11:56:23;;;;;;;2.43;1.80;;;30.20;40.30;;;;;;6109790;23;20404;-82
2022/06/03 11:59:09;;;;;;;2.17;1.97;;;30.40;40.10;;;;;;6146684;23;20427;-82
2022/06/03 12:01:53;;;;;;;2.00;1.90;;;30.80;38.80;;;;;;6148650;23;20394;-83
2022/06/03 12:04:40;;;;;;;2.00;1.83;;;31.00;39.10;;;;;;6123878;23;20403;-84
2022/06/03 12:07:17;;;;;;;2.30;1.70;;;31.10;38.90;;;;;;6145118;23;20509;-83
2022/06/03 12:10:04;;;;;;;3.23;1.63;;;30.70;38.90;;;;;;6145384;23;20433;-84
2022/06/03 12:15:40;;;;;;;1.80;1.70;;;29.90;40.30;;;;;;6147252;23;20782;-84
2022/06/03 12:18:06;;;;;;;2.90;1.97;;;30.40;39.50;;;;;;6127461;23;20411;-84
2022/06/03 12:20:35;;;;;;;1.97;1.87;;;31.00;39.50;;;;;;6151416;23;20798;-83
2022/06/03 12:23:11;;;;;;;2.87;2.30;;;31.40;38.60;;;;;;6149156;23;20420;-82
2022/06/03 12:25:44;;;;;;;1.80;1.50;;;30.60;38.90;;;;;;6144887;23;20407;-84
2022/06/03 12:28:42;;;;;;;2.20;1.87;;;30.40;39.90;;;;;;6134550;23;20467;-85
2022/06/03 12:31:17;;;;;;;2.73;2.20;;;30.70;39.10;;;;;;6109238;23;20868;-84
2022/06/03 12:34:28;;;;;;;5.47;2.40;;;30.50;39.50;;;;;;6133826;23;20425;-84
2022/06/03 12:37:00;;;;;;;1.80;1.70;;;30.10;40.40;;;;;;6107410;23;20429;-84
2022/06/03 12:40:04;;;;;;;1.80;1.70;;;29.80;41.20;;;;;;6107847;23;20435;-83
2022/06/03 12:42:37;;;;;;;3.20;1.90;;;30.50;40.40;;;;;;6134584;23;20415;-85
2022/06/03 12:45:04;;;;;;;2.90;2.00;;;30.40;39.80;;;;;;6134953;23;20384;-84
2022/06/03 12:47:35;;;;;;;2.93;2.23;;;31.00;39.70;;;;;;6135009;23;20436;-83
2022/06/03 12:50:05;;;;;;;2.63;2.00;;;30.70;39.50;;;;;;6132196;23;20440;-84
2022/06/03 12:52:33;;;;;;;2.03;1.90;;;30.40;39.70;;;;;;6134392;23;20412;-83
2022/06/03 12:55:17;;;;;;;4.17;2.10;;;29.60;41.00;;;;;;6133720;23;20415;-83
2022/06/03 12:58:02;;;;;;;2.63;2.10;;;30.10;40.50;;;;;;6131818;23;20396;-84
2022/06/03 13:00:48;;;;;;;2.13;1.93;;;30.10;40.10;;;;;;6132333;23;20410;-84
2022/06/03 13:03:24;;;;;;;2.53;2.43;;;29.50;41.10;;;;;;6109023;23;20403;-84
2022/06/03 13:05:53;;;;;;;1.90;1.80;;;29.50;42.20;;;;;;6133822;23;20402;-83
2022/06/03 13:08:26;;;;;;;2.40;1.80;;;30.00;41.70;;;;;;6132936;23;20498;-83
2022/06/03 13:11:19;;;;;;;2.20;1.70;;;29.90;40.80;;;;;;6135258;23;20411;-83
2022/06/03 13:13:57;;;;;;;2.10;2.00;;;30.10;41.30;;;;;;6142569;23;20500;-82
2022/06/03 13:16:31;;;;;;;3.03;2.30;;;30.60;40.00;;;;;;6134635;23;20437;-82
2022/06/03 13:19:19;;;;;;;2.50;2.30;;;29.80;40.60;;;;;;6133129;23;20433;-82
2022/06/03 13:22:09;;;;;;;2.10;2.00;;;29.40;41.80;;;;;;6107472;23;20773;-82
2022/06/03 13:24:38;;;;;;;2.20;2.10;;;29.10;41.90;;;;;;6108077;23;20420;-83
2022/06/03 13:27:20;;;;;;;2.27;2.07;;;29.10;42.20;;;;;;6132021;23;20443;-84
2022/06/03 13:29:50;;;;;;;2.30;2.10;;;29.50;42.30;;;;;;6132161;23;20517;-85
2022/06/03 13:32:20;;;;;;;2.73;2.50;;;30.00;41.70;;;;;;6132924;23;20420;-84
2022/06/03 13:34:49;;;;;;;3.13;2.93;;;30.20;41.10;;;;;;6132273;23;20415;-85
2022/06/03 13:37:21;;;;;;;2.33;2.13;;;29.80;41.40;;;;;;6130965;23;20479;-85
2022/06/03 13:39:50;;;;;;;2.20;2.10;;;29.50;41.80;;;;;;6132495;23;20432;-84
2022/06/03 13:45:07;;;;;;;2.47;2.30;;;29.10;42.40;;;;;;6130614;23;20419;-84
2022/06/03 13:47:39;;;;;;;3.60;2.10;;;29.20;42.80;;;;;;6131223;23;20439;-83
2022/06/03 13:50:12;;;;;;;2.40;2.20;;;29.10;42.60;;;;;;6129529;23;20504;-84
2022/06/03 13:53:00;;;;;;;3.77;2.60;;;29.10;43.10;;;;;;6133040;23;20412;-83
2022/06/03 13:55:30;;;;;;;2.60;2.40;;;29.50;42.80;;;;;;6111699;23;20777;-84
2022/06/03 13:58:02;;;;;;;2.20;2.10;;;29.70;42.40;;;;;;6132715;23;20396;-83
2022/06/03 14:00:36;;;;;;;2.30;2.20;;;29.70;42.20;;;;;;6134856;23;20389;-84
2022/06/03 14:03:13;;;;;;;3.50;3.20;;;29.70;42.10;;;;;;6134537;23;20427;-84
2022/06/03 14:05:56;;;;;;;6.37;5.77;;;29.50;42.50;;;;;;6108405;23;20512;-85
2022/06/03 14:08:52;;;;;;;5.53;3.20;;;29.20;42.40;;;;;;6133339;23;20447;-84
2022/06/03 14:12:09;;;;;;;4.10;2.63;;;29.10;42.90;;;;;;6110414;23;20411;-84
2022/06/03 14:14:57;;;;;;;2.50;2.30;;;29.90;43.40;;;;;;6133799;23;20458;-84
2022/06/03 14:17:49;;;;;;;2.33;2.23;;;29.90;43.30;;;;;;6136868;23;20415;-83
2022/06/03 14:20:32;;;;;;;2.50;2.30;;;29.50;44.00;;;;;;6139373;23;20438;-82
2022/06/03 14:23:20;;;;;;;3.33;2.67;;;29.60;44.70;;;;;;6138224;23;20383;-82
2022/06/03 14:25:57;;;;;;;4.10;2.27;;;30.00;44.60;;;;;;6138970;23;20471;-83
2022/06/03 14:28:49;;;;;;;4.27;2.33;;;30.00;45.00;;;;;;6138455;23;20497;-83
2022/06/03 14:31:35;;;;;;;3.13;2.30;;;29.80;46.80;;;;;;6115498;23;20527;-83
2022/06/03 14:34:26;;;;;;;2.87;2.67;;;30.10;46.50;;;;;;6137363;23;20462;-82
2022/06/03 14:36:55;;;;;;;4.87;2.53;;;29.90;46.90;;;;;;6140058;23;20411;-82
2022/06/03 14:39:30;;;;;;;5.33;2.40;;;29.60;47.00;;;;;;6113337;23;20427;-83